Airfield :
LOGIN :

Register | Disclaimer

   EN    FR    IT 

 










Legend :    VFR   Marginal VFR   IFR   Intensive IFR   Very Intensive IFR
Visi :
Ceiling :
>= 8 km
>= 3000ft
5 to 8 km
1000 to 3000 ft
1500m to 5 km
500 to 1000 ft
800 to 1500m
200 to 500 ft
< 800m
< 200 ft
Symbols :   Thunderstorms  Fog  Heavy snow  Heavy precipitations  Wind > 20 kt
SIGMETs :     Misc.  Thunderstorms  Icing  Turbulence  Mountain Waves  Volcanic Ashes






- Airport Elevation : 302 ft
- IATA code : CGN


EDDK - Cologne Bonn

CURRENT METAR :
  • 110350Z 21005KT 7000 -DZ SCT011 BKN034 09/08 Q1006 BECMG 30006KT 4000 BKN005

EXPIRED METARs :
  • 110320Z 24005KT 200V270 9999 -RA BKN021 10/08 Q1006 BECMG 30006KT 4000 -RADZ BKN005
  • 110250Z 17006KT 9999 BKN021 10/08 Q1006 BECMG 27006KT 4000 -RADZ BKN005
  • 110220Z 16005KT 9999 BKN021 10/08 Q1006 NOSIG
  • 110150Z 15007KT 9999 BKN028 10/08 Q1006 NOSIG
  • 110120Z 14006KT 9999 BKN034 09/08 Q1007 NOSIG

TAF TAF EDDK
Valid from the 11 at 00:00 until the 12 at 06:00 UTC


102300Z 1100/1206 16008KT 9999 BKN030
TEMPO 1100/1103 RA BKN011
BECMG 1103/1106 25005KT BKN013
TEMPO 1105/1111 BKN007
BECMG 1108/1111 32010KT
TEMPO 1111/1115 4000 RA BKN007
BECMG 1117/1120 BKN030
PROB40
TEMPO 1120/1206 BKN011
BECMG 1200/1203 29005KT



MET'MAP, your aeronautical weather chart ! - Copyright ORBIFLY December 2007 - Disclaimer

ORBIFLY MET'MAP TEAM :

Programming & Development : Alexandra Zaïnal
Concept & original design : Baudouin d'Aumeries
Assistance for programming : Marc-Olivier Méhu
Technical & hardware support : Manuel Goepfert

Contact : metmap@orbifly.com




SOURCES & CREDITS :

   NOAA